sensor_id;sensor_type;location;lat;lon;timestamp;temperature;humidity
15698;DHT22;7949;48.726;9.102;2022-11-20T00:01:15;4.40;99.90
15698;DHT22;7949;48.726;9.102;2022-11-20T00:03:45;4.40;99.90
15698;DHT22;7949;48.726;9.102;2022-11-20T00:06:13;4.40;99.90
15698;DHT22;7949;48.726;9.102;2022-11-20T00:08:40;4.40;99.90
15698;DHT22;7949;48.726;9.102;2022-11-20T00:11:10;4.30;99.90
15698;DHT22;7949;48.726;9.102;2022-11-20T00:13:38;4.40;99.90
15698;DHT22;7949;48.726;9.102;2022-11-20T00:16:06;4.40;99.90
15698;DHT22;7949;48.726;9.102;2022-11-20T00:18:34;4.40;99.90
15698;DHT22;7949;48.726;9.102;2022-11-20T00:21:01;4.40;99.90
15698;DHT22;7949;48.726;9.102;2022-11-20T00:23:28;4.40;99.90
15698;DHT22;7949;48.726;9.102;2022-11-20T00:25:55;4.40;99.90
15698;DHT22;7949;48.726;9.102;2022-11-20T00:28:23;4.40;99.90
15698;DHT22;7949;48.726;9.102;2022-11-20T00:30:50;4.40;99.90
15698;DHT22;7949;48.726;9.102;2022-11-20T00:33:17;4.80;99.90
15698;DHT22;7949;48.726;9.102;2022-11-20T00:35:44;4.40;99.90
15698;DHT22;7949;48.726;9.102;2022-11-20T00:38:10;4.40;99.90
15698;DHT22;7949;48.726;9.102;2022-11-20T00:40:37;4.40;99.90
15698;DHT22;7949;48.726;9.102;2022-11-20T00:43:04;4.40;99.90
15698;DHT22;7949;48.726;9.102;2022-11-20T00:45:32;4.40;99.90
15698;DHT22;7949;48.726;9.102;2022-11-20T00:47:59;4.40;99.90
15698;DHT22;7949;48.726;9.102;2022-11-20T00:50:26;4.40;99.90
15698;DHT22;7949;48.726;9.102;2022-11-20T00:52:53;4.40;99.90
15698;DHT22;7949;48.726;9.102;2022-11-20T00:55:20;4.50;99.90
15698;DHT22;7949;48.726;9.102;2022-11-20T00:57:47;4.40;99.90
15698;DHT22;7949;48.726;9.102;2022-11-20T01:00:14;4.30;99.90
15698;DHT22;7949;48.726;9.102;2022-11-20T01:02:42;4.80;99.90
15698;DHT22;7949;48.726;9.102;2022-11-20T01:05:09;4.30;99.90
15698;DHT22;7949;48.726;9.102;2022-11-20T01:07:36;4.30;99.90
15698;DHT22;7949;48.726;9.102;2022-11-20T01:10:04;4.20;99.90
15698;DHT22;7949;48.726;9.102;2022-11-20T01:12:31;4.20;99.90
15698;DHT22;7949;48.726;9.102;2022-11-20T01:14:58;4.30;99.90
15698;DHT22;7949;48.726;9.102;2022-11-20T01:17:24;4.10;99.90
15698;DHT22;7949;48.726;9.102;2022-11-20T01:19:53;4.10;99.90
15698;DHT22;7949;48.726;9.102;2022-11-20T01:22:20;4.10;99.90
15698;DHT22;7949;48.726;9.102;2022-11-20T01:24:47;4.00;99.90
15698;DHT22;7949;48.726;9.102;2022-11-20T01:27:14;4.00;99.90
15698;DHT22;7949;48.726;9.102;2022-11-20T01:29:40;3.90;99.90
15698;DHT22;7949;48.726;9.102;2022-11-20T01:32:07;3.90;99.90
15698;DHT22;7949;48.726;9.102;2022-11-20T01:34:34;3.80;99.90
15698;DHT22;7949;48.726;9.102;2022-11-20T01:37:03;3.80;99.90
15698;DHT22;7949;48.726;9.102;2022-11-20T01:39:30;3.80;99.90
15698;DHT22;7949;48.726;9.102;2022-11-20T01:41:57;3.70;99.90
15698;DHT22;7949;48.726;9.102;2022-11-20T01:44:58;3.90;99.90
15698;DHT22;7949;48.726;9.102;2022-11-20T01:47:31;3.70;99.90
15698;DHT22;7949;48.726;9.102;2022-11-20T01:50:04;3.70;99.90
15698;DHT22;7949;48.726;9.102;2022-11-20T01:52:36;3.70;99.90
15698;DHT22;7949;48.726;9.102;2022-11-20T01:55:06;3.60;99.90
15698;DHT22;7949;48.726;9.102;2022-11-20T01:57:35;3.60;99.90
15698;DHT22;7949;48.726;9.102;2022-11-20T02:00:05;3.60;99.90
15698;DHT22;7949;48.726;9.102;2022-11-20T02:02:33;3.50;99.90
15698;DHT22;7949;48.726;9.102;2022-11-20T02:05:06;3.50;99.90
15698;DHT22;7949;48.726;9.102;2022-11-20T02:07:36;3.40;99.90
15698;DHT22;7949;48.726;9.102;2022-11-20T02:10:04;3.40;99.90
15698;DHT22;7949;48.726;9.102;2022-11-20T02:12:31;3.50;99.90
15698;DHT22;7949;48.726;9.102;2022-11-20T02:15:16;3.80;99.90
15698;DHT22;7949;48.726;9.102;2022-11-20T02:17:43;3.50;99.90
15698;DHT22;7949;48.726;9.102;2022-11-20T02:20:10;3.50;99.90
15698;DHT22;7949;48.726;9.102;2022-11-20T02:22:45;3.50;99.90
15698;DHT22;7949;48.726;9.102;2022-11-20T02:25:17;3.50;99.90
15698;DHT22;7949;48.726;9.102;2022-11-20T02:27:45;3.50;99.90
15698;DHT22;7949;48.726;9.102;2022-11-20T02:30:12;3.70;99.90
15698;DHT22;7949;48.726;9.102;2022-11-20T02:32:39;3.60;99.90
15698;DHT22;7949;48.726;9.102;2022-11-20T02:35:08;3.60;99.90
15698;DHT22;7949;48.726;9.102;2022-11-20T02:37:38;3.60;99.90
15698;DHT22;7949;48.726;9.102;2022-11-20T02:40:06;3.70;99.90
15698;DHT22;7949;48.726;9.102;2022-11-20T02:42:35;3.60;99.90
15698;DHT22;7949;48.726;9.102;2022-11-20T02:45:03;3.60;99.90
15698;DHT22;7949;48.726;9.102;2022-11-20T02:47:30;3.60;99.90
15698;DHT22;7949;48.726;9.102;2022-11-20T02:49:57;3.70;99.90
15698;DHT22;7949;48.726;9.102;2022-11-20T02:52:25;3.70;99.90
15698;DHT22;7949;48.726;9.102;2022-11-20T02:54:52;3.60;99.90
15698;DHT22;7949;48.726;9.102;2022-11-20T02:59:56;3.70;99.90
15698;DHT22;7949;48.726;9.102;2022-11-20T03:02:22;3.80;99.90
15698;DHT22;7949;48.726;9.102;2022-11-20T03:04:49;3.90;99.90
15698;DHT22;7949;48.726;9.102;2022-11-20T03:07:16;3.80;99.90
15698;DHT22;7949;48.726;9.102;2022-11-20T03:09:43;3.90;99.90
15698;DHT22;7949;48.726;9.102;2022-11-20T03:12:10;3.90;99.90
15698;DHT22;7949;48.726;9.102;2022-11-20T03:14:37;3.90;99.90
15698;DHT22;7949;48.726;9.102;2022-11-20T03:17:05;3.90;99.90
15698;DHT22;7949;48.726;9.102;2022-11-20T03:19:32;4.00;99.90
15698;DHT22;7949;48.726;9.102;2022-11-20T03:21:59;4.00;99.90
15698;DHT22;7949;48.726;9.102;2022-11-20T03:24:26;4.10;99.90
15698;DHT22;7949;48.726;9.102;2022-11-20T03:26:53;4.00;99.90
15698;DHT22;7949;48.726;9.102;2022-11-20T03:29:20;3.90;99.90
15698;DHT22;7949;48.726;9.102;2022-11-20T03:31:47;3.90;99.90
15698;DHT22;7949;48.726;9.102;2022-11-20T03:34:15;3.90;99.90
15698;DHT22;7949;48.726;9.102;2022-11-20T03:36:46;4.00;99.90
15698;DHT22;7949;48.726;9.102;2022-11-20T03:39:12;3.80;99.90
15698;DHT22;7949;48.726;9.102;2022-11-20T03:41:41;3.80;99.90
15698;DHT22;7949;48.726;9.102;2022-11-20T03:44:10;3.80;99.90
15698;DHT22;7949;48.726;9.102;2022-11-20T03:46:37;3.70;99.90
15698;DHT22;7949;48.726;9.102;2022-11-20T03:49:04;3.70;99.90
15698;DHT22;7949;48.726;9.102;2022-11-20T03:51:34;3.70;99.90
15698;DHT22;7949;48.726;9.102;2022-11-20T03:54:03;3.60;99.90
15698;DHT22;7949;48.726;9.102;2022-11-20T03:56:32;3.50;99.90
15698;DHT22;7949;48.726;9.102;2022-11-20T03:58:59;3.50;99.90
15698;DHT22;7949;48.726;9.102;2022-11-20T04:01:28;3.50;99.90
15698;DHT22;7949;48.726;9.102;2022-11-20T04:03:56;3.50;99.90
15698;DHT22;7949;48.726;9.102;2022-11-20T04:06:26;3.50;99.90
15698;DHT22;7949;48.726;9.102;2022-11-20T04:08:55;3.50;99.90
15698;DHT22;7949;48.726;9.102;2022-11-20T04:11:24;3.40;99.90
15698;DHT22;7949;48.726;9.102;2022-11-20T04:13:52;3.40;99.90
15698;DHT22;7949;48.726;9.102;2022-11-20T04:16:20;3.30;99.90
15698;DHT22;7949;48.726;9.102;2022-11-20T04:18:51;3.30;99.90
15698;DHT22;7949;48.726;9.102;2022-11-20T04:21:19;3.30;99.90
15698;DHT22;7949;48.726;9.102;2022-11-20T04:23:46;3.30;99.90
15698;DHT22;7949;48.726;9.102;2022-11-20T04:26:15;3.30;99.90
15698;DHT22;7949;48.726;9.102;2022-11-20T04:28:41;3.30;99.90
15698;DHT22;7949;48.726;9.102;2022-11-20T04:31:10;3.40;99.90
15698;DHT22;7949;48.726;9.102;2022-11-20T04:33:38;3.40;99.90
15698;DHT22;7949;48.726;9.102;2022-11-20T04:36:07;3.40;99.90
15698;DHT22;7949;48.726;9.102;2022-11-20T04:38:34;3.50;99.90
15698;DHT22;7949;48.726;9.102;2022-11-20T04:41:02;3.50;99.90
15698;DHT22;7949;48.726;9.102;2022-11-20T04:43:32;3.60;99.90
15698;DHT22;7949;48.726;9.102;2022-11-20T04:45:59;3.60;99.90
15698;DHT22;7949;48.726;9.102;2022-11-20T04:48:28;3.60;99.90
15698;DHT22;7949;48.726;9.102;2022-11-20T04:50:55;3.60;99.90
15698;DHT22;7949;48.726;9.102;2022-11-20T04:53:22;3.70;99.90
15698;DHT22;7949;48.726;9.102;2022-11-20T04:55:49;3.70;99.90
15698;DHT22;7949;48.726;9.102;2022-11-20T04:58:16;3.70;99.90
15698;DHT22;7949;48.726;9.102;2022-11-20T05:00:45;3.80;99.90
15698;DHT22;7949;48.726;9.102;2022-11-20T05:03:12;3.80;99.90
15698;DHT22;7949;48.726;9.102;2022-11-20T05:05:39;3.80;99.90
15698;DHT22;7949;48.726;9.102;2022-11-20T05:08:05;3.80;99.90
15698;DHT22;7949;48.726;9.102;2022-11-20T05:10:32;3.90;99.90
15698;DHT22;7949;48.726;9.102;2022-11-20T05:12:59;3.90;99.90
15698;DHT22;7949;48.726;9.102;2022-11-20T05:15:26;4.00;99.90
15698;DHT22;7949;48.726;9.102;2022-11-20T05:17:54;4.10;99.90
15698;DHT22;7949;48.726;9.102;2022-11-20T05:20:21;4.10;99.90
15698;DHT22;7949;48.726;9.102;2022-11-20T05:22:48;4.10;99.90
15698;DHT22;7949;48.726;9.102;2022-11-20T05:25:15;4.20;99.90
15698;DHT22;7949;48.726;9.102;2022-11-20T05:27:42;4.20;99.90
15698;DHT22;7949;48.726;9.102;2022-11-20T05:30:10;4.20;99.90
15698;DHT22;7949;48.726;9.102;2022-11-20T05:32:37;4.20;99.90
15698;DHT22;7949;48.726;9.102;2022-11-20T05:35:06;4.30;99.90
15698;DHT22;7949;48.726;9.102;2022-11-20T05:37:33;4.30;99.90
15698;DHT22;7949;48.726;9.102;2022-11-20T05:40:00;4.30;99.90
15698;DHT22;7949;48.726;9.102;2022-11-20T05:42:30;4.30;99.90
15698;DHT22;7949;48.726;9.102;2022-11-20T05:44:57;4.40;99.90
15698;DHT22;7949;48.726;9.102;2022-11-20T05:47:24;4.40;99.90
15698;DHT22;7949;48.726;9.102;2022-11-20T05:49:51;4.40;99.90
15698;DHT22;7949;48.726;9.102;2022-11-20T05:52:20;4.40;99.90
15698;DHT22;7949;48.726;9.102;2022-11-20T05:54:47;4.40;99.90
15698;DHT22;7949;48.726;9.102;2022-11-20T05:57:14;4.40;99.90
15698;DHT22;7949;48.726;9.102;2022-11-20T05:59:41;4.40;99.90
15698;DHT22;7949;48.726;9.102;2022-11-20T06:02:08;4.50;99.90
15698;DHT22;7949;48.726;9.102;2022-11-20T06:04:35;4.50;99.90
15698;DHT22;7949;48.726;9.102;2022-11-20T06:07:02;4.50;99.90
15698;DHT22;7949;48.726;9.102;2022-11-20T06:09:30;4.50;99.90
15698;DHT22;7949;48.726;9.102;2022-11-20T06:11:57;4.50;99.90
15698;DHT22;7949;48.726;9.102;2022-11-20T06:14:24;4.60;99.90
15698;DHT22;7949;48.726;9.102;2022-11-20T06:16:51;4.60;99.90
15698;DHT22;7949;48.726;9.102;2022-11-20T06:19:18;4.60;99.90
15698;DHT22;7949;48.726;9.102;2022-11-20T06:21:47;4.50;99.90
15698;DHT22;7949;48.726;9.102;2022-11-20T06:24:14;4.50;99.90
15698;DHT22;7949;48.726;9.102;2022-11-20T06:26:49;4.60;99.90
15698;DHT22;7949;48.726;9.102;2022-11-20T06:29:19;4.60;99.90
15698;DHT22;7949;48.726;9.102;2022-11-20T06:31:52;4.60;99.90
15698;DHT22;7949;48.726;9.102;2022-11-20T06:34:19;4.60;99.90
15698;DHT22;7949;48.726;9.102;2022-11-20T06:36:51;4.50;99.90
15698;DHT22;7949;48.726;9.102;2022-11-20T06:39:24;4.60;99.90
15698;DHT22;7949;48.726;9.102;2022-11-20T06:41:55;4.50;99.90
15698;DHT22;7949;48.726;9.102;2022-11-20T06:44:22;4.50;99.90
15698;DHT22;7949;48.726;9.102;2022-11-20T06:46:52;4.70;99.90
15698;DHT22;7949;48.726;9.102;2022-11-20T06:49:23;4.50;99.90
15698;DHT22;7949;48.726;9.102;2022-11-20T06:51:56;4.50;99.90
15698;DHT22;7949;48.726;9.102;2022-11-20T06:54:28;4.70;99.90
15698;DHT22;7949;48.726;9.102;2022-11-20T06:56:59;4.50;99.90
15698;DHT22;7949;48.726;9.102;2022-11-20T06:59:26;4.50;99.90
15698;DHT22;7949;48.726;9.102;2022-11-20T07:01:53;4.50;99.90
15698;DHT22;7949;48.726;9.102;2022-11-20T07:04:20;4.50;99.90
15698;DHT22;7949;48.726;9.102;2022-11-20T07:06:47;4.40;99.90
15698;DHT22;7949;48.726;9.102;2022-11-20T07:09:14;4.40;99.90
15698;DHT22;7949;48.726;9.102;2022-11-20T07:11:41;4.50;99.90
15698;DHT22;7949;48.726;9.102;2022-11-20T07:14:10;4.50;99.90
15698;DHT22;7949;48.726;9.102;2022-11-20T07:16:37;4.50;99.90
15698;DHT22;7949;48.726;9.102;2022-11-20T07:19:03;4.50;99.90
15698;DHT22;7949;48.726;9.102;2022-11-20T07:21:30;4.50;99.90
15698;DHT22;7949;48.726;9.102;2022-11-20T07:23:57;4.50;99.90
15698;DHT22;7949;48.726;9.102;2022-11-20T07:26:24;4.50;99.90
15698;DHT22;7949;48.726;9.102;2022-11-20T07:28:51;4.60;99.90
15698;DHT22;7949;48.726;9.102;2022-11-20T07:31:19;4.60;99.90
15698;DHT22;7949;48.726;9.102;2022-11-20T07:33:46;4.70;99.90
15698;DHT22;7949;48.726;9.102;2022-11-20T07:36:13;4.70;99.90
15698;DHT22;7949;48.726;9.102;2022-11-20T07:38:40;4.70;99.90
15698;DHT22;7949;48.726;9.102;2022-11-20T07:41:07;4.70;99.90
15698;DHT22;7949;48.726;9.102;2022-11-20T07:43:34;4.70;99.90
15698;DHT22;7949;48.726;9.102;2022-11-20T07:46:01;4.70;99.90
15698;DHT22;7949;48.726;9.102;2022-11-20T07:48:30;4.70;99.90
15698;DHT22;7949;48.726;9.102;2022-11-20T07:50:57;4.80;99.90
15698;DHT22;7949;48.726;9.102;2022-11-20T07:53:24;4.80;99.90
15698;DHT22;7949;48.726;9.102;2022-11-20T07:55:51;4.90;99.90
15698;DHT22;7949;48.726;9.102;2022-11-20T07:58:18;4.90;99.90
15698;DHT22;7949;48.726;9.102;2022-11-20T08:00:45;5.00;99.90
15698;DHT22;7949;48.726;9.102;2022-11-20T08:03:12;5.10;99.90
15698;DHT22;7949;48.726;9.102;2022-11-20T08:05:41;5.80;99.90
15698;DHT22;7949;48.726;9.102;2022-11-20T08:08:08;5.30;99.90
15698;DHT22;7949;48.726;9.102;2022-11-20T08:10:34;5.20;99.90
15698;DHT22;7949;48.726;9.102;2022-11-20T08:13:01;5.30;99.90
15698;DHT22;7949;48.726;9.102;2022-11-20T08:15:48;5.20;99.90
15698;DHT22;7949;48.726;9.102;2022-11-20T08:18:16;5.40;99.90
15698;DHT22;7949;48.726;9.102;2022-11-20T08:20:45;5.50;99.90
15698;DHT22;7949;48.726;9.102;2022-11-20T08:23:12;5.60;99.90
15698;DHT22;7949;48.726;9.102;2022-11-20T08:25:39;5.50;99.90
15698;DHT22;7949;48.726;9.102;2022-11-20T08:28:08;5.60;99.90
15698;DHT22;7949;48.726;9.102;2022-11-20T08:30:36;5.60;99.90
15698;DHT22;7949;48.726;9.102;2022-11-20T08:33:04;5.50;99.90
15698;DHT22;7949;48.726;9.102;2022-11-20T08:35:33;5.60;99.90
15698;DHT22;7949;48.726;9.102;2022-11-20T08:38:02;5.60;99.90
15698;DHT22;7949;48.726;9.102;2022-11-20T08:40:29;5.70;99.90
15698;DHT22;7949;48.726;9.102;2022-11-20T08:42:56;5.60;99.90
15698;DHT22;7949;48.726;9.102;2022-11-20T08:45:23;5.90;99.90
15698;DHT22;7949;48.726;9.102;2022-11-20T08:47:50;6.00;99.90
15698;DHT22;7949;48.726;9.102;2022-11-20T08:50:17;6.00;99.90
15698;DHT22;7949;48.726;9.102;2022-11-20T08:52:44;6.00;99.90
15698;DHT22;7949;48.726;9.102;2022-11-20T08:55:13;6.10;99.90
15698;DHT22;7949;48.726;9.102;2022-11-20T08:57:40;6.30;99.90
15698;DHT22;7949;48.726;9.102;2022-11-20T09:00:09;6.40;99.90
15698;DHT22;7949;48.726;9.102;2022-11-20T09:02:36;6.40;99.90
15698;DHT22;7949;48.726;9.102;2022-11-20T09:05:04;6.50;99.90
15698;DHT22;7949;48.726;9.102;2022-11-20T09:07:31;6.50;99.90
15698;DHT22;7949;48.726;9.102;2022-11-20T09:09:58;6.60;99.90
15698;DHT22;7949;48.726;9.102;2022-11-20T09:12:26;6.50;99.90
15698;DHT22;7949;48.726;9.102;2022-11-20T09:14:53;6.30;99.90
15698;DHT22;7949;48.726;9.102;2022-11-20T09:17:20;7.40;99.90
15698;DHT22;7949;48.726;9.102;2022-11-20T09:19:47;6.10;99.90
15698;DHT22;7949;48.726;9.102;2022-11-20T09:22:14;6.00;99.90
15698;DHT22;7949;48.726;9.102;2022-11-20T09:24:40;6.10;99.90
15698;DHT22;7949;48.726;9.102;2022-11-20T09:27:08;6.10;99.90
15698;DHT22;7949;48.726;9.102;2022-11-20T09:29:36;6.20;99.90
15698;DHT22;7949;48.726;9.102;2022-11-20T09:32:03;6.20;99.90
15698;DHT22;7949;48.726;9.102;2022-11-20T09:34:31;6.20;99.90
15698;DHT22;7949;48.726;9.102;2022-11-20T09:36:58;6.10;99.90
15698;DHT22;7949;48.726;9.102;2022-11-20T09:39:25;6.20;99.90
15698;DHT22;7949;48.726;9.102;2022-11-20T09:42:22;6.10;99.90
15698;DHT22;7949;48.726;9.102;2022-11-20T09:45:05;6.10;99.90
15698;DHT22;7949;48.726;9.102;2022-11-20T09:47:45;6.00;99.90
15698;DHT22;7949;48.726;9.102;2022-11-20T09:50:23;6.10;99.90
15698;DHT22;7949;48.726;9.102;2022-11-20T09:53:04;6.10;99.90
15698;DHT22;7949;48.726;9.102;2022-11-20T09:55:34;6.10;99.90
15698;DHT22;7949;48.726;9.102;2022-11-20T09:58:05;6.20;99.90
15698;DHT22;7949;48.726;9.102;2022-11-20T10:00:34;6.10;99.90
15698;DHT22;7949;48.726;9.102;2022-11-20T10:03:05;6.10;99.90
15698;DHT22;7949;48.726;9.102;2022-11-20T10:05:40;6.10;99.90
15698;DHT22;7949;48.726;9.102;2022-11-20T10:08:16;6.00;99.90
15698;DHT22;7949;48.726;9.102;2022-11-20T10:10:49;6.50;99.90
15698;DHT22;7949;48.726;9.102;2022-11-20T10:13:34;6.00;99.90
15698;DHT22;7949;48.726;9.102;2022-11-20T10:16:18;6.10;99.90
15698;DHT22;7949;48.726;9.102;2022-11-20T10:18:58;5.90;99.90
15698;DHT22;7949;48.726;9.102;2022-11-20T10:21:32;5.90;99.90
15698;DHT22;7949;48.726;9.102;2022-11-20T10:27:47;5.90;99.90
15698;DHT22;7949;48.726;9.102;2022-11-20T10:30:18;5.90;99.90
15698;DHT22;7949;48.726;9.102;2022-11-20T10:32:54;5.90;99.90
15698;DHT22;7949;48.726;9.102;2022-11-20T10:35:28;5.90;99.90
15698;DHT22;7949;48.726;9.102;2022-11-20T10:37:58;5.80;99.90
15698;DHT22;7949;48.726;9.102;2022-11-20T10:40:30;5.70;99.90
15698;DHT22;7949;48.726;9.102;2022-11-20T10:43:02;5.80;99.90
15698;DHT22;7949;48.726;9.102;2022-11-20T10:45:43;5.80;99.90
15698;DHT22;7949;48.726;9.102;2022-11-20T10:48:16;5.60;99.90
15698;DHT22;7949;48.726;9.102;2022-11-20T10:53:51;5.60;99.90
15698;DHT22;7949;48.726;9.102;2022-11-20T10:56:23;5.70;99.90
15698;DHT22;7949;48.726;9.102;2022-11-20T10:59:04;5.70;99.90
15698;DHT22;7949;48.726;9.102;2022-11-20T11:01:40;5.70;99.90
15698;DHT22;7949;48.726;9.102;2022-11-20T11:04:18;5.70;99.90
15698;DHT22;7949;48.726;9.102;2022-11-20T11:06:49;5.70;99.90
15698;DHT22;7949;48.726;9.102;2022-11-20T11:09:19;5.70;99.90
15698;DHT22;7949;48.726;9.102;2022-11-20T11:11:49;5.70;99.90
15698;DHT22;7949;48.726;9.102;2022-11-20T11:14:16;5.70;99.90
15698;DHT22;7949;48.726;9.102;2022-11-20T11:16:50;5.70;99.90
15698;DHT22;7949;48.726;9.102;2022-11-20T11:19:19;5.80;99.90
15698;DHT22;7949;48.726;9.102;2022-11-20T11:21:47;5.80;99.90
15698;DHT22;7949;48.726;9.102;2022-11-20T11:24:20;5.40;99.90
15698;DHT22;7949;48.726;9.102;2022-11-20T11:26:52;6.10;99.90
15698;DHT22;7949;48.726;9.102;2022-11-20T11:29:21;6.20;99.90
15698;DHT22;7949;48.726;9.102;2022-11-20T11:31:49;6.10;99.90
15698;DHT22;7949;48.726;9.102;2022-11-20T11:34:18;6.20;99.90
15698;DHT22;7949;48.726;9.102;2022-11-20T11:36:53;6.70;99.90
15698;DHT22;7949;48.726;9.102;2022-11-20T11:39:22;7.30;99.90
15698;DHT22;7949;48.726;9.102;2022-11-20T11:41:50;7.70;99.90
15698;DHT22;7949;48.726;9.102;2022-11-20T11:44:19;8.90;99.90
15698;DHT22;7949;48.726;9.102;2022-11-20T11:47:22;8.70;99.90
15698;DHT22;7949;48.726;9.102;2022-11-20T11:50:01;9.30;99.90
15698;DHT22;7949;48.726;9.102;2022-11-20T11:52:29;9.80;99.90
15698;DHT22;7949;48.726;9.102;2022-11-20T11:54:59;9.80;99.90
15698;DHT22;7949;48.726;9.102;2022-11-20T11:57:32;9.80;99.90
15698;DHT22;7949;48.726;9.102;2022-11-20T12:00:06;9.70;99.90
15698;DHT22;7949;48.726;9.102;2022-11-20T12:02:37;9.20;99.90
15698;DHT22;7949;48.726;9.102;2022-11-20T12:05:16;8.60;99.90
15698;DHT22;7949;48.726;9.102;2022-11-20T12:07:47;8.70;99.90
15698;DHT22;7949;48.726;9.102;2022-11-20T12:10:21;8.90;99.90
15698;DHT22;7949;48.726;9.102;2022-11-20T12:12:52;9.10;99.90
15698;DHT22;7949;48.726;9.102;2022-11-20T12:15:29;8.60;99.90
15698;DHT22;7949;48.726;9.102;2022-11-20T12:17:57;8.50;99.90
15698;DHT22;7949;48.726;9.102;2022-11-20T12:20:28;8.20;99.90
15698;DHT22;7949;48.726;9.102;2022-11-20T12:23:01;7.90;99.90
15698;DHT22;7949;48.726;9.102;2022-11-20T12:25:34;7.80;99.90
15698;DHT22;7949;48.726;9.102;2022-11-20T12:28:18;7.60;99.90
15698;DHT22;7949;48.726;9.102;2022-11-20T12:31:12;7.40;99.90
15698;DHT22;7949;48.726;9.102;2022-11-20T12:34:01;7.20;99.90
15698;DHT22;7949;48.726;9.102;2022-11-20T12:36:38;7.00;99.90
15698;DHT22;7949;48.726;9.102;2022-11-20T12:39:26;6.90;99.90
15698;DHT22;7949;48.726;9.102;2022-11-20T12:42:31;6.90;99.90
15698;DHT22;7949;48.726;9.102;2022-11-20T12:45:58;7.00;99.90
15698;DHT22;7949;48.726;9.102;2022-11-20T12:48:41;6.90;99.90
15698;DHT22;7949;48.726;9.102;2022-11-20T12:51:21;7.20;99.90
15698;DHT22;7949;48.726;9.102;2022-11-20T12:53:59;7.40;99.90
15698;DHT22;7949;48.726;9.102;2022-11-20T12:56:36;7.30;99.90
15698;DHT22;7949;48.726;9.102;2022-11-20T12:59:22;7.10;99.90
15698;DHT22;7949;48.726;9.102;2022-11-20T13:01:55;7.00;99.90
15698;DHT22;7949;48.726;9.102;2022-11-20T13:04:44;7.10;99.90
15698;DHT22;7949;48.726;9.102;2022-11-20T13:07:16;7.60;99.90
15698;DHT22;7949;48.726;9.102;2022-11-20T13:09:47;7.70;99.90
15698;DHT22;7949;48.726;9.102;2022-11-20T13:12:19;7.90;99.90
15698;DHT22;7949;48.726;9.102;2022-11-20T13:14:53;8.10;99.90
15698;DHT22;7949;48.726;9.102;2022-11-20T13:17:27;8.10;99.90
15698;DHT22;7949;48.726;9.102;2022-11-20T13:19:57;8.00;99.90
15698;DHT22;7949;48.726;9.102;2022-11-20T13:22:26;7.90;99.90
15698;DHT22;7949;48.726;9.102;2022-11-20T13:24:54;7.80;99.90
15698;DHT22;7949;48.726;9.102;2022-11-20T13:27:22;7.70;99.90
15698;DHT22;7949;48.726;9.102;2022-11-20T13:30:02;7.60;99.90
15698;DHT22;7949;48.726;9.102;2022-11-20T13:32:29;7.60;99.90
15698;DHT22;7949;48.726;9.102;2022-11-20T13:34:59;7.60;99.90
15698;DHT22;7949;48.726;9.102;2022-11-20T13:37:29;8.00;99.90
15698;DHT22;7949;48.726;9.102;2022-11-20T13:40:20;8.10;99.90
15698;DHT22;7949;48.726;9.102;2022-11-20T13:42:55;8.20;99.90
15698;DHT22;7949;48.726;9.102;2022-11-20T13:45:24;8.20;99.90
15698;DHT22;7949;48.726;9.102;2022-11-20T13:47:52;8.00;99.90
15698;DHT22;7949;48.726;9.102;2022-11-20T13:50:26;8.10;99.90
15698;DHT22;7949;48.726;9.102;2022-11-20T13:53:00;7.90;99.90
15698;DHT22;7949;48.726;9.102;2022-11-20T13:55:36;7.80;99.90
15698;DHT22;7949;48.726;9.102;2022-11-20T13:58:13;7.90;99.90
15698;DHT22;7949;48.726;9.102;2022-11-20T14:00:51;7.80;99.90
15698;DHT22;7949;48.726;9.102;2022-11-20T14:03:23;7.90;99.90
15698;DHT22;7949;48.726;9.102;2022-11-20T14:05:53;8.00;99.90
15698;DHT22;7949;48.726;9.102;2022-11-20T14:08:27;7.80;99.90
15698;DHT22;7949;48.726;9.102;2022-11-20T14:11:14;7.60;99.90
15698;DHT22;7949;48.726;9.102;2022-11-20T14:13:52;7.50;99.90
15698;DHT22;7949;48.726;9.102;2022-11-20T14:16:20;7.50;99.90
15698;DHT22;7949;48.726;9.102;2022-11-20T14:18:47;7.40;99.90
15698;DHT22;7949;48.726;9.102;2022-11-20T14:21:21;7.30;99.90
15698;DHT22;7949;48.726;9.102;2022-11-20T14:23:49;7.10;99.90
15698;DHT22;7949;48.726;9.102;2022-11-20T14:26:18;7.00;99.90
15698;DHT22;7949;48.726;9.102;2022-11-20T14:28:49;6.80;99.90
15698;DHT22;7949;48.726;9.102;2022-11-20T14:31:22;6.80;99.90
15698;DHT22;7949;48.726;9.102;2022-11-20T14:33:50;6.80;99.90
15698;DHT22;7949;48.726;9.102;2022-11-20T14:36:19;7.20;99.90
15698;DHT22;7949;48.726;9.102;2022-11-20T14:38:46;6.90;99.90
15698;DHT22;7949;48.726;9.102;2022-11-20T14:41:19;6.90;99.90
15698;DHT22;7949;48.726;9.102;2022-11-20T14:43:47;6.80;99.90
15698;DHT22;7949;48.726;9.102;2022-11-20T14:46:16;7.30;99.90
15698;DHT22;7949;48.726;9.102;2022-11-20T14:48:46;6.90;99.90
15698;DHT22;7949;48.726;9.102;2022-11-20T14:51:28;6.90;99.90
15698;DHT22;7949;48.726;9.102;2022-11-20T14:53:56;6.90;99.90
15698;DHT22;7949;48.726;9.102;2022-11-20T14:56:24;6.80;99.90
15698;DHT22;7949;48.726;9.102;2022-11-20T14:58:58;6.80;99.90
15698;DHT22;7949;48.726;9.102;2022-11-20T15:01:26;6.70;99.90
15698;DHT22;7949;48.726;9.102;2022-11-20T15:04:00;6.70;99.90
15698;DHT22;7949;48.726;9.102;2022-11-20T15:06:28;6.60;99.90
15698;DHT22;7949;48.726;9.102;2022-11-20T15:08:56;6.60;99.90
15698;DHT22;7949;48.726;9.102;2022-11-20T15:11:28;6.50;99.90
15698;DHT22;7949;48.726;9.102;2022-11-20T15:16:26;6.30;99.90
15698;DHT22;7949;48.726;9.102;2022-11-20T15:18:53;6.20;99.90
15698;DHT22;7949;48.726;9.102;2022-11-20T15:21:21;6.20;99.90
15698;DHT22;7949;48.726;9.102;2022-11-20T15:23:48;6.10;99.90
15698;DHT22;7949;48.726;9.102;2022-11-20T15:26:19;6.00;99.90
15698;DHT22;7949;48.726;9.102;2022-11-20T15:28:49;5.90;99.90
15698;DHT22;7949;48.726;9.102;2022-11-20T15:31:18;5.80;99.90
15698;DHT22;7949;48.726;9.102;2022-11-20T15:33:46;5.90;99.90
15698;DHT22;7949;48.726;9.102;2022-11-20T15:36:13;5.90;99.90
15698;DHT22;7949;48.726;9.102;2022-11-20T15:38:40;5.70;99.90
15698;DHT22;7949;48.726;9.102;2022-11-20T15:41:08;5.70;99.90
15698;DHT22;7949;48.726;9.102;2022-11-20T15:43:36;5.70;99.90
15698;DHT22;7949;48.726;9.102;2022-11-20T15:46:09;5.60;99.90
15698;DHT22;7949;48.726;9.102;2022-11-20T15:48:38;5.60;99.90
15698;DHT22;7949;48.726;9.102;2022-11-20T15:51:14;5.50;99.90
15698;DHT22;7949;48.726;9.102;2022-11-20T15:53:43;5.70;99.90
15698;DHT22;7949;48.726;9.102;2022-11-20T15:56:12;5.50;99.90
15698;DHT22;7949;48.726;9.102;2022-11-20T15:58:39;5.50;99.90
15698;DHT22;7949;48.726;9.102;2022-11-20T16:01:10;5.40;99.90
15698;DHT22;7949;48.726;9.102;2022-11-20T16:03:37;5.40;99.90
15698;DHT22;7949;48.726;9.102;2022-11-20T16:06:05;5.40;99.90
15698;DHT22;7949;48.726;9.102;2022-11-20T16:08:32;5.70;99.90
15698;DHT22;7949;48.726;9.102;2022-11-20T16:10:59;5.40;99.90
15698;DHT22;7949;48.726;9.102;2022-11-20T16:13:25;5.40;99.90
15698;DHT22;7949;48.726;9.102;2022-11-20T16:16:18;5.40;99.90
15698;DHT22;7949;48.726;9.102;2022-11-20T16:18:46;5.50;99.90
15698;DHT22;7949;48.726;9.102;2022-11-20T16:21:13;5.50;99.90
15698;DHT22;7949;48.726;9.102;2022-11-20T16:23:40;5.70;99.90
15698;DHT22;7949;48.726;9.102;2022-11-20T16:26:12;5.50;99.90
15698;DHT22;7949;48.726;9.102;2022-11-20T16:28:39;5.50;99.90
15698;DHT22;7949;48.726;9.102;2022-11-20T16:31:12;5.60;99.90
15698;DHT22;7949;48.726;9.102;2022-11-20T16:33:39;5.50;99.90